Time;durP1;ratioP1;P1;durP2;ratioP2;P2;SDS_P1;SDS_P2;PMS_P1;PMS_P2;Temp;Humidity;BMP_temperature;BMP_pressure;BME280_temperature;BME280_humidity;BME280_pressure;Samples;Min_cycle;Max_cycle;Signal;HPM_P1;HPM_P2
2021/12/20 00:00:22;;;;;;;3.47;1.73;;;;;;;;;;4967019;28;20499;-78
2021/12/20 00:02:49;;;;;;;3.50;1.60;;;;;;;;;;4968661;28;20422;-78
2021/12/20 00:05:16;;;;;;;3.30;1.60;;;;;;;;;;4969159;28;20423;-78
2021/12/20 00:07:42;;;;;;;1.47;1.03;;;;;;;;;;4967678;28;20465;-78
2021/12/20 00:10:08;;;;;;;2.90;1.57;;;;;;;;;;4968479;28;20419;-78
2021/12/20 00:12:34;;;;;;;3.00;1.80;;;;;;;;;;4969457;28;20408;-78
2021/12/20 00:15:00;;;;;;;2.20;1.43;;;;;;;;;;4968397;28;20439;-78
2021/12/20 00:17:27;;;;;;;3.73;1.80;;;;;;;;;;4967644;28;20427;-78
2021/12/20 00:19:53;;;;;;;4.20;1.40;;;;;;;;;;4967223;28;20463;-77
2021/12/20 00:22:19;;;;;;;2.27;0.97;;;;;;;;;;4968590;28;20922;-78
2021/12/20 00:24:45;;;;;;;2.77;1.40;;;;;;;;;;4968751;28;20455;-78
2021/12/20 00:27:13;;;;;;;2.20;1.40;;;;;;;;;;4968536;28;20467;-78
2021/12/20 00:29:39;;;;;;;2.60;1.43;;;;;;;;;;4968161;28;20439;-78
2021/12/20 00:32:05;;;;;;;5.50;1.40;;;;;;;;;;4968310;28;20428;-77
2021/12/20 00:34:33;;;;;;;3.17;1.57;;;;;;;;;;4968889;28;20423;-80
2021/12/20 00:37:05;;;;;;;3.00;1.63;;;;;;;;;;4972890;28;20459;-80
2021/12/20 00:42:16;;;;;;;2.90;1.50;;;;;;;;;;4970737;28;20427;-79
2021/12/20 00:44:42;;;;;;;2.63;1.20;;;;;;;;;;4969792;28;20412;-80
2021/12/20 00:47:08;;;;;;;5.40;1.50;;;;;;;;;;4969600;28;20977;-80
2021/12/20 00:49:34;;;;;;;2.40;1.30;;;;;;;;;;4969030;28;20423;-79
2021/12/20 00:52:00;;;;;;;2.47;1.40;;;;;;;;;;4967838;28;20424;-79
2021/12/20 00:54:26;;;;;;;3.83;1.53;;;;;;;;;;4971804;28;20424;-79
2021/12/20 00:56:52;;;;;;;4.83;1.40;;;;;;;;;;4970374;28;20561;-78
2021/12/20 00:59:18;;;;;;;2.37;1.37;;;;;;;;;;4971054;28;20467;-78
2021/12/20 01:01:44;;;;;;;2.50;1.40;;;;;;;;;;4973705;28;20423;-79
2021/12/20 01:04:10;;;;;;;1.97;1.10;;;;;;;;;;4971595;28;20426;-79
2021/12/20 01:06:36;;;;;;;2.30;1.40;;;;;;;;;;4971911;28;20439;-79
2021/12/20 01:09:02;;;;;;;2.70;1.70;;;;;;;;;;4972154;28;20428;-80
2021/12/20 01:11:29;;;;;;;3.57;1.50;;;;;;;;;;4971757;28;20434;-79
2021/12/20 01:13:57;;;;;;;2.43;1.43;;;;;;;;;;4971843;28;20954;-78
2021/12/20 01:16:32;;;;;;;3.00;1.80;;;;;;;;;;4970968;28;20454;-79
2021/12/20 01:18:59;;;;;;;2.60;1.73;;;;;;;;;;4971135;28;20498;-79
2021/12/20 01:21:25;;;;;;;2.20;1.40;;;;;;;;;;4971310;28;20415;-79
2021/12/20 01:23:52;;;;;;;3.27;1.53;;;;;;;;;;4969891;28;20510;-79
2021/12/20 01:26:18;;;;;;;2.50;1.23;;;;;;;;;;4971479;28;20934;-78
2021/12/20 01:28:44;;;;;;;2.50;1.30;;;;;;;;;;4969823;28;20435;-78
2021/12/20 01:31:10;;;;;;;2.87;1.70;;;;;;;;;;4970942;28;20427;-79
2021/12/20 01:33:36;;;;;;;2.67;1.70;;;;;;;;;;4967151;28;20416;-78
2021/12/20 01:36:02;;;;;;;3.77;1.80;;;;;;;;;;4966409;28;20448;-79
2021/12/20 01:38:28;;;;;;;2.80;1.60;;;;;;;;;;4971411;28;20438;-78
2021/12/20 01:40:54;;;;;;;2.37;1.40;;;;;;;;;;4970799;28;20459;-78
2021/12/20 01:43:20;;;;;;;2.10;1.33;;;;;;;;;;4970786;28;20581;-78
2021/12/20 01:45:50;;;;;;;2.57;1.40;;;;;;;;;;4971055;28;20510;-78
2021/12/20 01:48:19;;;;;;;2.10;1.30;;;;;;;;;;4971302;28;20399;-78
2021/12/20 01:53:14;;;;;;;2.00;1.20;;;;;;;;;;4970773;28;20544;-78
2021/12/20 01:55:40;;;;;;;2.90;1.70;;;;;;;;;;4969915;28;20423;-78
2021/12/20 01:58:06;;;;;;;4.27;1.70;;;;;;;;;;4970130;28;20519;-78
2021/12/20 02:00:34;;;;;;;2.67;1.40;;;;;;;;;;4970235;28;20901;-78
2021/12/20 02:03:02;;;;;;;3.00;1.50;;;;;;;;;;4970634;28;20559;-78
2021/12/20 02:08:17;;;;;;;3.07;1.47;;;;;;;;;;4970931;28;20435;-78
2021/12/20 02:10:46;;;;;;;1.80;1.13;;;;;;;;;;4970631;28;20425;-78
2021/12/20 02:13:13;;;;;;;2.40;1.60;;;;;;;;;;4970582;28;20435;-78
2021/12/20 02:15:39;;;;;;;3.37;1.57;;;;;;;;;;4971489;28;20813;-79
2021/12/20 02:18:05;;;;;;;2.37;1.20;;;;;;;;;;4970442;28;20462;-79
2021/12/20 02:20:32;;;;;;;2.40;1.60;;;;;;;;;;4970388;28;20499;-79
2021/12/20 02:22:59;;;;;;;3.63;1.80;;;;;;;;;;4970595;28;20423;-78
2021/12/20 02:25:26;;;;;;;2.40;1.47;;;;;;;;;;4969147;28;20950;-78
2021/12/20 02:27:52;;;;;;;4.37;1.80;;;;;;;;;;4970495;28;20450;-78
2021/12/20 02:36:58;;;;;;;5.23;1.83;;;;;;;;;;4970277;28;20419;-78
2021/12/20 02:38:41;;;;;;;3.67;1.73;;;;;;;;;;4970194;28;20936;-78
2021/12/20 02:41:10;;;;;;;3.00;1.83;;;;;;;;;;4969777;28;20442;-78
2021/12/20 02:43:40;;;;;;;4.77;1.73;;;;;;;;;;4969978;28;20972;-77
2021/12/20 02:46:12;;;;;;;3.43;2.00;;;;;;;;;;4970012;28;20835;-78
2021/12/20 02:48:38;;;;;;;2.50;1.50;;;;;;;;;;4970158;28;20481;-77
2021/12/20 02:51:04;;;;;;;2.50;1.70;;;;;;;;;;4969595;28;20837;-77
2021/12/20 02:53:30;;;;;;;3.67;1.60;;;;;;;;;;4968357;28;20420;-78
2021/12/20 02:55:56;;;;;;;3.10;1.40;;;;;;;;;;4969881;28;20427;-78
2021/12/20 02:58:22;;;;;;;2.23;1.43;;;;;;;;;;4969861;28;20943;-78
2021/12/20 03:00:48;;;;;;;2.90;1.53;;;;;;;;;;4968424;28;20463;-78
2021/12/20 03:03:14;;;;;;;2.60;1.33;;;;;;;;;;4969337;28;20968;-77
2021/12/20 03:05:40;;;;;;;2.17;1.40;;;;;;;;;;4968505;28;20522;-78
2021/12/20 03:08:06;;;;;;;2.70;1.30;;;;;;;;;;4970416;28;20819;-78
2021/12/20 03:10:34;;;;;;;3.27;1.40;;;;;;;;;;4969732;28;20906;-78
2021/12/20 03:13:00;;;;;;;2.80;1.67;;;;;;;;;;4969458;28;20427;-77
2021/12/20 03:15:27;;;;;;;3.77;1.90;;;;;;;;;;4969747;28;20448;-77
2021/12/20 03:17:57;;;;;;;2.70;1.60;;;;;;;;;;4968355;28;20451;-77
2021/12/20 03:20:23;;;;;;;3.50;1.73;;;;;;;;;;4969015;28;20455;-77
2021/12/20 03:22:50;;;;;;;2.33;1.43;;;;;;;;;;4969808;28;20514;-77
2021/12/20 03:25:17;;;;;;;2.57;1.53;;;;;;;;;;4969398;28;20431;-78
2021/12/20 03:27:43;;;;;;;2.00;1.30;;;;;;;;;;4969529;28;20423;-78
2021/12/20 03:30:11;;;;;;;2.90;1.50;;;;;;;;;;4968766;28;20480;-78
2021/12/20 03:32:37;;;;;;;3.00;1.47;;;;;;;;;;4968358;28;20841;-77
2021/12/20 03:35:04;;;;;;;2.27;1.40;;;;;;;;;;4968967;28;20457;-78
2021/12/20 03:37:30;;;;;;;2.60;1.53;;;;;;;;;;4969597;28;20447;-79
2021/12/20 03:39:56;;;;;;;2.47;1.70;;;;;;;;;;4969251;28;20462;-79
2021/12/20 03:42:22;;;;;;;2.63;1.40;;;;;;;;;;4969104;28;20424;-79
2021/12/20 03:44:49;;;;;;;4.10;1.70;;;;;;;;;;4968121;28;20428;-79
2021/12/20 03:47:15;;;;;;;2.50;1.50;;;;;;;;;;4969554;28;20435;-79
2021/12/20 03:49:41;;;;;;;4.10;1.23;;;;;;;;;;4967456;28;20459;-78
2021/12/20 03:52:08;;;;;;;2.50;1.40;;;;;;;;;;4969003;28;20427;-78
2021/12/20 03:54:34;;;;;;;2.90;1.37;;;;;;;;;;4969032;28;20898;-78
2021/12/20 03:57:00;;;;;;;3.50;2.07;;;;;;;;;;4969030;28;20490;-78
2021/12/20 03:59:28;;;;;;;3.17;1.23;;;;;;;;;;4967968;28;20498;-78
2021/12/20 04:01:54;;;;;;;2.80;1.57;;;;;;;;;;4968720;28;20462;-78
2021/12/20 04:04:21;;;;;;;1.50;1.10;;;;;;;;;;4968600;28;20907;-78
2021/12/20 04:06:47;;;;;;;2.43;1.40;;;;;;;;;;4968837;28;20447;-78
2021/12/20 04:09:13;;;;;;;5.20;2.00;;;;;;;;;;4967374;28;20434;-77
2021/12/20 04:11:39;;;;;;;2.97;1.80;;;;;;;;;;4969014;28;20416;-78
2021/12/20 04:14:04;;;;;;;2.97;1.20;;;;;;;;;;4968672;28;20470;-78
2021/12/20 04:16:30;;;;;;;2.30;1.70;;;;;;;;;;4968017;28;20478;-78
2021/12/20 04:18:57;;;;;;;3.07;1.60;;;;;;;;;;4968304;28;20431;-78
2021/12/20 04:21:23;;;;;;;2.57;1.50;;;;;;;;;;4968585;28;20466;-78
2021/12/20 04:23:49;;;;;;;2.73;1.30;;;;;;;;;;4968786;28;20455;-78
2021/12/20 04:26:15;;;;;;;3.27;1.27;;;;;;;;;;4968685;28;20447;-78
2021/12/20 04:28:41;;;;;;;3.60;1.97;;;;;;;;;;4969993;28;20434;-77
2021/12/20 04:31:08;;;;;;;3.00;1.47;;;;;;;;;;4970416;28;20431;-78
2021/12/20 04:33:34;;;;;;;2.63;1.43;;;;;;;;;;4970410;28;20464;-78
2021/12/20 04:36:00;;;;;;;2.00;1.43;;;;;;;;;;4971715;28;20922;-78
2021/12/20 04:38:28;;;;;;;2.00;1.30;;;;;;;;;;4971624;28;20484;-77
2021/12/20 04:40:54;;;;;;;2.17;1.60;;;;;;;;;;4971462;28;21250;-77
2021/12/20 04:43:20;;;;;;;2.67;1.50;;;;;;;;;;4971871;28;20408;-77
2021/12/20 04:45:46;;;;;;;2.80;1.60;;;;;;;;;;4972127;28;20424;-77
2021/12/20 04:48:13;;;;;;;2.07;1.20;;;;;;;;;;4972195;28;20407;-78
2021/12/20 04:50:39;;;;;;;1.70;1.10;;;;;;;;;;4971610;28;20735;-78
2021/12/20 04:53:05;;;;;;;3.87;1.53;;;;;;;;;;4971664;28;20514;-78
2021/12/20 04:55:31;;;;;;;2.50;1.50;;;;;;;;;;4971693;28;20433;-78
2021/12/20 04:57:58;;;;;;;3.60;1.40;;;;;;;;;;4971528;28;20455;-78
2021/12/20 05:00:32;;;;;;;5.00;2.13;;;;;;;;;;4971497;28;20478;-78
2021/12/20 05:02:58;;;;;;;1.97;1.27;;;;;;;;;;4970954;28;20466;-78
2021/12/20 05:05:24;;;;;;;2.00;1.07;;;;;;;;;;4971909;28;20451;-78
2021/12/20 05:07:50;;;;;;;2.43;1.33;;;;;;;;;;4969844;28;20554;-78
2021/12/20 05:10:29;;;;;;;3.53;1.70;;;;;;;;;;4971010;28;20522;-78
2021/12/20 05:12:56;;;;;;;2.80;1.70;;;;;;;;;;4970585;28;20442;-78
2021/12/20 05:15:23;;;;;;;3.53;1.90;;;;;;;;;;4971311;28;20442;-78
2021/12/20 05:17:49;;;;;;;3.17;1.90;;;;;;;;;;4971683;28;20949;-78
2021/12/20 05:20:15;;;;;;;3.53;2.03;;;;;;;;;;4968909;28;20485;-77
2021/12/20 05:22:42;;;;;;;2.90;2.03;;;;;;;;;;4971764;28;20424;-78
2021/12/20 05:25:08;;;;;;;3.33;2.20;;;;;;;;;;4969815;28;20420;-77
2021/12/20 05:27:34;;;;;;;3.37;1.63;;;;;;;;;;4971494;28;20814;-77
2021/12/20 05:30:00;;;;;;;3.13;1.80;;;;;;;;;;4970583;28;20473;-77
2021/12/20 05:32:26;;;;;;;2.10;1.40;;;;;;;;;;4969262;28;20509;-76
2021/12/20 05:34:53;;;;;;;1.97;1.27;;;;;;;;;;4971347;28;20474;-77
2021/12/20 05:37:19;;;;;;;2.03;1.10;;;;;;;;;;4969694;28;20494;-77
2021/12/20 05:39:45;;;;;;;1.40;1.00;;;;;;;;;;4969880;28;20940;-78
2021/12/20 05:42:11;;;;;;;2.33;1.00;;;;;;;;;;4971501;28;20532;-78
2021/12/20 05:44:37;;;;;;;1.93;0.87;;;;;;;;;;4969497;28;20878;-78
2021/12/20 05:47:04;;;;;;;1.30;0.90;;;;;;;;;;4970806;28;20507;-78
2021/12/20 05:49:31;;;;;;;1.77;0.90;;;;;;;;;;4970027;28;20431;-78
2021/12/20 05:51:58;;;;;;;2.90;1.30;;;;;;;;;;4968746;28;20451;-78
2021/12/20 05:54:24;;;;;;;1.20;0.90;;;;;;;;;;4970778;28;20449;-78
2021/12/20 05:56:50;;;;;;;5.80;1.90;;;;;;;;;;4969495;28;20813;-77
2021/12/20 05:59:16;;;;;;;5.87;2.23;;;;;;;;;;4966762;28;20558;-78
2021/12/20 06:01:42;;;;;;;5.33;2.47;;;;;;;;;;4964619;28;20933;-77
2021/12/20 06:04:08;;;;;;;5.50;2.60;;;;;;;;;;4969639;28;20969;-77
2021/12/20 06:06:35;;;;;;;7.70;3.90;;;;;;;;;;4990515;28;20447;-77
2021/12/20 06:09:01;;;;;;;6.77;3.10;;;;;;;;;;4982719;28;20477;-78
2021/12/20 06:11:27;;;;;;;7.00;3.10;;;;;;;;;;4969418;28;20439;-78
2021/12/20 06:13:53;;;;;;;8.10;3.20;;;;;;;;;;4970917;28;20420;-78
2021/12/20 06:16:19;;;;;;;9.13;3.60;;;;;;;;;;4969939;28;20451;-77
2021/12/20 06:18:45;;;;;;;7.47;3.13;;;;;;;;;;4969177;28;20420;-78
2021/12/20 06:21:11;;;;;;;6.30;2.97;;;;;;;;;;4969843;28;20520;-78
2021/12/20 06:23:37;;;;;;;9.40;4.17;;;;;;;;;;4970372;28;20408;-78
2021/12/20 06:26:04;;;;;;;6.70;3.20;;;;;;;;;;4968683;28;20444;-78
2021/12/20 06:28:30;;;;;;;5.83;2.70;;;;;;;;;;4969862;28;20505;-78
2021/12/20 06:30:56;;;;;;;5.07;2.60;;;;;;;;;;4971212;28;20426;-79
2021/12/20 06:33:23;;;;;;;6.03;2.60;;;;;;;;;;4969049;28;20459;-78
2021/12/20 06:35:50;;;;;;;10.53;5.07;;;;;;;;;;4971048;28;20926;-77
2021/12/20 06:38:19;;;;;;;10.10;5.13;;;;;;;;;;4969877;28;20415;-79
2021/12/20 06:40:46;;;;;;;13.37;7.20;;;;;;;;;;4969846;28;20475;-79
2021/12/20 06:43:12;;;;;;;15.10;7.50;;;;;;;;;;4969957;28;20428;-79
2021/12/20 06:45:38;;;;;;;18.23;7.23;;;;;;;;;;4970657;28;20775;-80
2021/12/20 06:48:05;;;;;;;17.53;7.50;;;;;;;;;;4969642;28;20534;-79
2021/12/20 06:50:31;;;;;;;14.83;7.63;;;;;;;;;;4969511;28;20415;-79
2021/12/20 06:52:57;;;;;;;17.23;7.30;;;;;;;;;;4970816;28;20415;-79
2021/12/20 06:55:23;;;;;;;15.97;7.17;;;;;;;;;;4970874;28;20411;-79
2021/12/20 06:57:50;;;;;;;14.00;5.87;;;;;;;;;;4970539;28;20455;-79
2021/12/20 07:00:16;;;;;;;10.70;6.30;;;;;;;;;;4970522;28;20455;-79
2021/12/20 07:02:42;;;;;;;18.67;8.00;;;;;;;;;;4969410;28;20407;-79
2021/12/20 07:05:08;;;;;;;9.70;4.50;;;;;;;;;;4971119;28;20454;-79
2021/12/20 07:07:35;;;;;;;14.30;6.27;;;;;;;;;;4970873;28;20968;-80
2021/12/20 07:10:05;;;;;;;8.63;4.67;;;;;;;;;;4969789;28;20409;-79
2021/12/20 07:12:33;;;;;;;7.70;3.93;;;;;;;;;;4969484;28;20426;-79
2021/12/20 07:15:00;;;;;;;10.53;4.70;;;;;;;;;;4970675;28;20490;-79
2021/12/20 07:17:26;;;;;;;16.03;5.73;;;;;;;;;;4969483;28;20435;-79
2021/12/20 07:19:52;;;;;;;9.20;4.60;;;;;;;;;;4969015;28;20471;-79
2021/12/20 07:22:18;;;;;;;27.50;5.57;;;;;;;;;;4970409;28;20486;-79
2021/12/20 07:24:44;;;;;;;11.40;5.63;;;;;;;;;;4969725;28;20422;-79
2021/12/20 07:27:11;;;;;;;12.23;4.97;;;;;;;;;;4969902;28;20526;-79
2021/12/20 07:29:37;;;;;;;8.17;4.30;;;;;;;;;;4970634;28;20476;-80
2021/12/20 07:32:04;;;;;;;9.47;4.60;;;;;;;;;;4971868;28;20404;-79
2021/12/20 07:34:30;;;;;;;4.90;3.17;;;;;;;;;;4971689;28;20412;-79
2021/12/20 07:36:56;;;;;;;9.37;4.17;;;;;;;;;;4969646;28;20435;-79
2021/12/20 07:39:22;;;;;;;7.90;4.30;;;;;;;;;;4970760;28;20544;-79
2021/12/20 07:41:49;;;;;;;9.30;3.80;;;;;;;;;;4969671;28;20454;-79
2021/12/20 07:44:15;;;;;;;8.17;3.40;;;;;;;;;;4970966;28;20408;-79
2021/12/20 07:46:41;;;;;;;9.50;4.47;;;;;;;;;;4969364;28;20454;-79
2021/12/20 07:49:07;;;;;;;6.00;3.40;;;;;;;;;;4971410;28;20411;-79
2021/12/20 07:51:33;;;;;;;8.50;4.57;;;;;;;;;;4968399;28;20416;-80
2021/12/20 07:53:59;;;;;;;11.40;4.90;;;;;;;;;;4969827;28;20771;-80
2021/12/20 07:56:25;;;;;;;7.77;4.43;;;;;;;;;;4969044;28;20557;-81
2021/12/20 07:58:51;;;;;;;8.80;3.80;;;;;;;;;;4969682;28;20427;-80
2021/12/20 08:01:17;;;;;;;11.17;4.77;;;;;;;;;;4970032;28;20408;-79
2021/12/20 08:03:43;;;;;;;13.60;4.40;;;;;;;;;;4968951;28;20411;-79
2021/12/20 08:06:09;;;;;;;14.93;4.70;;;;;;;;;;4969456;28;20419;-79
2021/12/20 08:08:36;;;;;;;9.20;4.30;;;;;;;;;;4967969;28;20407;-79
2021/12/20 08:11:02;;;;;;;7.60;3.90;;;;;;;;;;4967641;28;20419;-79
2021/12/20 08:13:28;;;;;;;9.80;4.57;;;;;;;;;;4969617;28;20445;-79
2021/12/20 08:15:54;;;;;;;14.43;4.60;;;;;;;;;;4968334;28;20794;-79
2021/12/20 08:18:21;;;;;;;8.00;3.90;;;;;;;;;;4971494;28;20407;-80
2021/12/20 08:20:47;;;;;;;15.57;3.50;;;;;;;;;;4970664;28;20553;-80
2021/12/20 08:23:13;;;;;;;12.93;4.20;;;;;;;;;;4971182;28;20435;-80
2021/12/20 08:25:39;;;;;;;5.33;3.20;;;;;;;;;;4971814;28;20419;-80
2021/12/20 08:28:06;;;;;;;17.33;3.77;;;;;;;;;;4970051;28;20466;-80
2021/12/20 08:30:32;;;;;;;10.50;3.87;;;;;;;;;;4969728;28;20764;-80
2021/12/20 08:32:58;;;;;;;6.37;3.57;;;;;;;;;;4967885;28;20479;-79
2021/12/20 08:35:24;;;;;;;7.57;3.00;;;;;;;;;;4967933;28;20498;-79
2021/12/20 08:37:53;;;;;;;8.67;3.23;;;;;;;;;;4968083;28;20576;-79
2021/12/20 08:40:19;;;;;;;5.20;3.33;;;;;;;;;;4968913;28;20965;-80
2021/12/20 08:42:45;;;;;;;7.47;2.93;;;;;;;;;;4969181;28;20412;-80
2021/12/20 08:45:12;;;;;;;13.10;3.20;;;;;;;;;;4969618;28;20407;-79
2021/12/20 08:47:38;;;;;;;8.50;2.77;;;;;;;;;;4968262;28;20424;-79
2021/12/20 08:50:06;;;;;;;4.00;2.53;;;;;;;;;;4967304;28;20404;-79
2021/12/20 08:52:32;;;;;;;4.10;2.60;;;;;;;;;;4968974;28;20922;-79
2021/12/20 08:54:58;;;;;;;4.50;2.67;;;;;;;;;;4968950;28;20419;-79
2021/12/20 08:57:24;;;;;;;1.67;1.10;;;;;;;;;;4968758;28;20516;-79
2021/12/20 08:59:50;;;;;;;2.60;1.53;;;;;;;;;;4968181;28;20463;-79
2021/12/20 09:02:16;;;;;;;1.20;0.80;;;;;;;;;;4968786;28;20490;-79
2021/12/20 09:04:42;;;;;;;3.47;1.90;;;;;;;;;;4968932;28;20518;-79
2021/12/20 09:07:14;;;;;;;2.70;1.43;;;;;;;;;;4966950;28;20534;-79
2021/12/20 09:09:43;;;;;;;4.20;1.83;;;;;;;;;;4966670;28;20421;-79
2021/12/20 09:12:09;;;;;;;2.27;1.60;;;;;;;;;;4966516;28;20443;-79
2021/12/20 09:14:36;;;;;;;2.97;1.80;;;;;;;;;;4967530;28;20415;-79
2021/12/20 09:17:02;;;;;;;2.40;1.33;;;;;;;;;;4968704;28;20489;-79
2021/12/20 09:19:29;;;;;;;2.80;1.63;;;;;;;;;;4970225;28;20477;-79
2021/12/20 09:21:55;;;;;;;1.73;1.37;;;;;;;;;;4970352;28;20902;-79
2021/12/20 09:24:20;;;;;;;2.57;1.70;;;;;;;;;;4970326;28;20407;-79
2021/12/20 09:26:47;;;;;;;2.23;1.10;;;;;;;;;;4971799;28;20492;-79
2021/12/20 09:29:13;;;;;;;2.43;1.30;;;;;;;;;;4971665;28;20918;-79
2021/12/20 09:31:39;;;;;;;1.33;0.80;;;;;;;;;;4971668;28;20415;-79
2021/12/20 09:34:05;;;;;;;2.70;1.60;;;;;;;;;;4971632;28;20404;-79
2021/12/20 09:36:33;;;;;;;18.93;1.90;;;;;;;;;;4970083;28;20772;-78
2021/12/20 09:38:59;;;;;;;1.40;0.90;;;;;;;;;;4971562;28;20412;-79
2021/12/20 09:44:08;;;;;;;3.17;1.13;;;;;;;;;;4971361;28;20490;-79
2021/12/20 09:46:35;;;;;;;1.97;1.03;;;;;;;;;;4971536;28;20428;-79
2021/12/20 09:49:02;;;;;;;3.23;1.40;;;;;;;;;;4970560;28;20416;-79
2021/12/20 09:51:28;;;;;;;2.23;1.37;;;;;;;;;;4971191;28;20887;-78
2021/12/20 09:53:57;;;;;;;3.17;1.80;;;;;;;;;;4971326;28;20977;-79
2021/12/20 09:56:24;;;;;;;3.07;1.07;;;;;;;;;;4971313;28;20934;-79
2021/12/20 09:58:52;;;;;;;1.40;1.00;;;;;;;;;;4971423;28;20411;-79
2021/12/20 10:01:19;;;;;;;2.13;1.13;;;;;;;;;;4970831;28;20411;-79
2021/12/20 10:03:45;;;;;;;1.40;0.80;;;;;;;;;;4971589;28;20414;-78
2021/12/20 10:06:11;;;;;;;1.67;1.00;;;;;;;;;;4971013;28;20420;-78
2021/12/20 10:08:48;;;;;;;2.33;1.17;;;;;;;;;;4970146;28;20442;-79
2021/12/20 10:11:22;;;;;;;2.87;1.23;;;;;;;;;;4969922;28;20830;-79
2021/12/20 10:13:49;;;;;;;3.30;2.17;;;;;;;;;;4970889;28;20959;-78
2021/12/20 10:16:19;;;;;;;4.67;2.40;;;;;;;;;;4969865;28;20853;-79
2021/12/20 10:18:45;;;;;;;2.83;1.37;;;;;;;;;;4970027;28;20417;-79
2021/12/20 10:21:12;;;;;;;1.83;1.10;;;;;;;;;;4970567;28;20560;-78
2021/12/20 10:23:42;;;;;;;4.20;1.60;;;;;;;;;;4970020;28;20832;-79
2021/12/20 10:26:13;;;;;;;3.00;1.70;;;;;;;;;;4968792;28;20450;-79
2021/12/20 10:28:39;;;;;;;2.10;1.23;;;;;;;;;;4969733;28;20457;-79
2021/12/20 10:31:10;;;;;;;1.93;1.40;;;;;;;;;;4970550;28;20494;-79
2021/12/20 10:33:37;;;;;;;2.27;1.27;;;;;;;;;;4969668;28;20435;-79
2021/12/20 10:36:05;;;;;;;2.63;1.30;;;;;;;;;;4970622;28;20412;-78
2021/12/20 10:38:31;;;;;;;1.80;1.00;;;;;;;;;;4970583;28;20518;-79
2021/12/20 10:40:57;;;;;;;1.80;1.00;;;;;;;;;;4969032;28;20470;-79
2021/12/20 10:43:25;;;;;;;2.10;1.20;;;;;;;;;;4970557;28;20486;-79
2021/12/20 10:45:52;;;;;;;1.40;0.90;;;;;;;;;;4969285;28;20439;-79
2021/12/20 10:48:18;;;;;;;1.40;0.90;;;;;;;;;;4963625;28;20420;-79
2021/12/20 10:50:44;;;;;;;2.10;1.20;;;;;;;;;;4949395;28;20420;-79
2021/12/20 10:53:19;;;;;;;1.70;1.00;;;;;;;;;;4951471;28;20416;-77
2021/12/20 10:55:47;;;;;;;3.80;2.17;;;;;;;;;;4951102;28;20422;-76
2021/12/20 10:58:19;;;;;;;2.57;1.50;;;;;;;;;;4951093;28;20845;-76
2021/12/20 11:00:46;;;;;;;1.40;0.90;;;;;;;;;;4949491;28;20476;-76
2021/12/20 11:05:58;;;;;;;2.13;1.40;;;;;;;;;;4951303;28;20436;-76
2021/12/20 11:11:13;;;;;;;1.73;1.00;;;;;;;;;;4951318;28;20883;-78
2021/12/20 11:13:40;;;;;;;2.27;1.30;;;;;;;;;;4953098;28;20415;-78
2021/12/20 11:16:27;;;;;;;2.20;1.50;;;;;;;;;;4958024;28;20436;-78
2021/12/20 11:19:08;;;;;;;1.70;1.00;;;;;;;;;;4966264;28;20422;-77
2021/12/20 11:21:39;;;;;;;3.10;1.30;;;;;;;;;;4952936;28;20428;-77
2021/12/20 11:24:12;;;;;;;1.70;1.17;;;;;;;;;;4950051;29;20488;-78
2021/12/20 11:26:38;;;;;;;2.27;1.50;;;;;;;;;;4949837;28;20457;-77
2021/12/20 11:29:05;;;;;;;2.80;1.73;;;;;;;;;;4960209;28;20441;-78
2021/12/20 11:31:32;;;;;;;3.10;1.20;;;;;;;;;;4969847;28;20918;-78
2021/12/20 11:33:59;;;;;;;2.30;1.23;;;;;;;;;;4969082;28;20511;-77
2021/12/20 11:36:25;;;;;;;2.47;1.83;;;;;;;;;;4969129;28;20451;-79
2021/12/20 11:38:52;;;;;;;2.00;1.20;;;;;;;;;;4969358;28;20444;-78
2021/12/20 11:41:18;;;;;;;2.20;1.57;;;;;;;;;;4969690;28;20454;-79
2021/12/20 11:43:45;;;;;;;4.57;1.73;;;;;;;;;;4968496;28;20447;-79
2021/12/20 11:46:13;;;;;;;2.63;1.40;;;;;;;;;;4970676;28;20758;-79
2021/12/20 11:48:39;;;;;;;2.43;1.70;;;;;;;;;;4965634;28;20420;-80
2021/12/20 11:51:06;;;;;;;3.43;2.00;;;;;;;;;;4953040;28;20451;-79
2021/12/20 11:53:36;;;;;;;1.60;0.90;;;;;;;;;;4961027;28;20514;-79
2021/12/20 11:56:03;;;;;;;1.20;0.77;;;;;;;;;;4969313;28;20521;-80
2021/12/20 11:58:30;;;;;;;1.37;0.90;;;;;;;;;;4969390;28;20434;-78
2021/12/20 12:01:02;;;;;;;2.70;1.60;;;;;;;;;;4968176;28;20459;-79
2021/12/20 12:03:29;;;;;;;4.47;1.90;;;;;;;;;;4969278;28;20407;-78
2021/12/20 12:05:56;;;;;;;5.50;1.57;;;;;;;;;;4974365;28;20418;-81
2021/12/20 12:08:28;;;;;;;3.27;1.60;;;;;;;;;;4971929;28;20415;-79
2021/12/20 12:11:19;;;;;;;3.60;1.87;;;;;;;;;;4968704;28;20511;-79
2021/12/20 12:13:50;;;;;;;4.63;2.07;;;;;;;;;;4969153;28;20420;-78
2021/12/20 12:16:37;;;;;;;2.80;1.60;;;;;;;;;;4968871;28;20504;-78
2021/12/20 12:19:03;;;;;;;2.60;1.40;;;;;;;;;;4968119;28;20968;-79
2021/12/20 12:21:32;;;;;;;1.60;0.97;;;;;;;;;;4970179;28;20411;-80
2021/12/20 12:23:58;;;;;;;2.37;1.40;;;;;;;;;;4968472;28;20430;-79
2021/12/20 12:26:31;;;;;;;2.80;1.57;;;;;;;;;;4967569;28;20479;-79
2021/12/20 12:28:58;;;;;;;2.57;1.80;;;;;;;;;;4969388;28;20411;-79
2021/12/20 12:31:24;;;;;;;3.13;1.70;;;;;;;;;;4967423;28;20432;-79
2021/12/20 12:34:09;;;;;;;2.10;1.50;;;;;;;;;;4968684;28;20423;-79
2021/12/20 12:36:41;;;;;;;1.93;1.23;;;;;;;;;;4960938;28;20457;-79
2021/12/20 12:39:12;;;;;;;2.70;1.30;;;;;;;;;;4967669;28;20419;-79
2021/12/20 12:42:00;;;;;;;3.17;1.80;;;;;;;;;;4967581;28;20502;-79
2021/12/20 12:44:30;;;;;;;2.53;1.47;;;;;;;;;;4969173;28;20403;-79
2021/12/20 12:47:05;;;;;;;3.03;1.87;;;;;;;;;;4969275;28;20428;-79
2021/12/20 12:49:32;;;;;;;2.80;1.13;;;;;;;;;;4971166;28;20445;-79
2021/12/20 12:52:04;;;;;;;1.70;0.93;;;;;;;;;;4970688;28;20451;-79
2021/12/20 12:54:33;;;;;;;1.93;1.00;;;;;;;;;;4972568;28;20506;-79
2021/12/20 12:57:12;;;;;;;1.83;0.87;;;;;;;;;;4971934;28;20486;-78
2021/12/20 12:59:50;;;;;;;1.53;1.00;;;;;;;;;;4974661;28;20846;-80
2021/12/20 13:02:24;;;;;;;2.60;1.43;;;;;;;;;;4974187;28;20421;-79
2021/12/20 13:04:51;;;;;;;4.10;1.50;;;;;;;;;;4972412;28;20515;-79
2021/12/20 13:07:23;;;;;;;1.60;0.90;;;;;;;;;;4971295;28;20501;-79
2021/12/20 13:09:50;;;;;;;1.63;1.03;;;;;;;;;;4971037;28;20423;-79
2021/12/20 13:12:26;;;;;;;1.97;1.30;;;;;;;;;;4971984;28;20981;-79
2021/12/20 13:15:19;;;;;;;1.90;1.20;;;;;;;;;;4972576;28;20462;-79
2021/12/20 13:17:48;;;;;;;1.90;1.10;;;;;;;;;;4972226;28;20451;-79
2021/12/20 13:22:58;;;;;;;1.60;1.00;;;;;;;;;;4971102;28;20921;-79
2021/12/20 13:25:42;;;;;;;2.27;1.20;;;;;;;;;;4974887;28;20431;-79
2021/12/20 13:28:10;;;;;;;1.70;0.90;;;;;;;;;;4976008;28;20469;-80
2021/12/20 13:30:41;;;;;;;1.93;1.20;;;;;;;;;;4978220;28;20446;-81
2021/12/20 13:33:07;;;;;;;1.70;1.03;;;;;;;;;;4978129;28;20431;-81
2021/12/20 13:35:33;;;;;;;2.10;1.10;;;;;;;;;;4977338;28;20458;-82
2021/12/20 13:38:13;;;;;;;3.00;1.57;;;;;;;;;;4972098;28;20440;-80
2021/12/20 13:40:48;;;;;;;2.47;1.40;;;;;;;;;;4962750;28;20462;-80
2021/12/20 13:43:18;;;;;;;3.40;1.10;;;;;;;;;;4959201;28;20400;-80
2021/12/20 13:46:01;;;;;;;1.97;1.10;;;;;;;;;;4957921;28;20404;-80
2021/12/20 13:48:27;;;;;;;2.50;1.23;;;;;;;;;;4956346;28;20418;-81
2021/12/20 13:50:54;;;;;;;1.40;0.90;;;;;;;;;;4958569;28;20503;-81
2021/12/20 13:53:30;;;;;;;1.40;0.60;;;;;;;;;;4976173;28;20466;-81
2021/12/20 13:55:57;;;;;;;5.70;1.20;;;;;;;;;;4976112;28;20457;-83
2021/12/20 13:58:24;;;;;;;1.00;0.50;;;;;;;;;;4975768;28;20835;-83
2021/12/20 14:00:50;;;;;;;1.40;0.80;;;;;;;;;;4962523;28;20463;-81
2021/12/20 14:03:16;;;;;;;1.47;0.73;;;;;;;;;;4966125;28;20423;-82
2021/12/20 14:05:42;;;;;;;2.73;0.80;;;;;;;;;;4972036;28;20420;-81
2021/12/20 14:08:14;;;;;;;1.27;0.70;;;;;;;;;;5068279;28;20433;-81
2021/12/20 14:10:41;;;;;;;1.93;1.03;;;;;;;;;;4994019;28;20431;-81
2021/12/20 14:13:08;;;;;;;1.33;0.80;;;;;;;;;;4975749;28;20526;-79
2021/12/20 14:15:43;;;;;;;1.30;0.80;;;;;;;;;;4994163;28;20431;-78
2021/12/20 14:18:13;;;;;;;2.90;0.90;;;;;;;;;;4974018;28;20451;-77
2021/12/20 14:20:39;;;;;;;3.00;0.83;;;;;;;;;;4980889;28;20471;-77
2021/12/20 14:23:10;;;;;;;2.63;0.90;;;;;;;;;;4970141;28;20420;-76
2021/12/20 14:25:37;;;;;;;1.93;1.03;;;;;;;;;;4971672;28;20432;-78
2021/12/20 14:28:03;;;;;;;1.63;0.80;;;;;;;;;;4969247;28;20439;-76
2021/12/20 14:30:29;;;;;;;2.70;1.00;;;;;;;;;;4969440;28;20442;-76
2021/12/20 14:32:55;;;;;;;1.57;0.77;;;;;;;;;;4969264;28;20456;-77
2021/12/20 14:35:32;;;;;;;1.60;0.93;;;;;;;;;;4969419;28;20416;-77
2021/12/20 14:38:00;;;;;;;1.87;0.93;;;;;;;;;;4969801;28;21037;-76
2021/12/20 14:40:46;;;;;;;2.10;1.13;;;;;;;;;;4969489;28;20508;-76
2021/12/20 14:43:15;;;;;;;3.97;1.30;;;;;;;;;;4972465;28;20433;-78
2021/12/20 14:45:42;;;;;;;1.93;0.87;;;;;;;;;;4980532;28;20416;-78
2021/12/20 14:48:20;;;;;;;1.70;0.87;;;;;;;;;;4977524;28;20443;-78
2021/12/20 14:50:48;;;;;;;1.30;0.80;;;;;;;;;;4979406;28;20422;-78
2021/12/20 14:53:15;;;;;;;1.37;0.90;;;;;;;;;;4978143;28;20416;-79
2021/12/20 14:55:41;;;;;;;2.13;1.00;;;;;;;;;;4977899;28;20412;-78
2021/12/20 14:58:07;;;;;;;2.63;1.20;;;;;;;;;;4976339;28;20493;-78
2021/12/20 15:00:33;;;;;;;1.47;0.87;;;;;;;;;;4976183;28;20462;-78
2021/12/20 15:02:59;;;;;;;1.30;0.70;;;;;;;;;;4978339;28;20426;-79
2021/12/20 15:05:26;;;;;;;2.27;1.13;;;;;;;;;;4978956;28;20411;-79
2021/12/20 15:07:52;;;;;;;2.17;0.90;;;;;;;;;;4974941;28;20439;-79
2021/12/20 15:10:19;;;;;;;1.33;0.90;;;;;;;;;;4974668;28;20425;-79